Time;durP1;ratioP1;P1;durP2;ratioP2;P2;SDS_P1;SDS_P2;PMS_P1;PMS_P2;Temp;Humidity;BMP_temperature;BMP_pressure;BME280_temperature;BME280_humidity;BME280_pressure;Samples;Min_cycle;Max_cycle;Signal;HPM_P1;HPM_P2
2024/04/21 00:02:14;;;;;;;15.20;4.80;;;;;;;8.21;70.31;98789.98;67457;1284;1016554;-70
2024/04/21 00:05:16;;;;;;;13.80;4.60;;;;;;;8.18;70.48;98794.45;67505;1284;1016121;-70
2024/04/21 00:08:19;;;;;;;17.60;5.20;;;;;;;8.15;70.18;98800.04;67488;1284;1015962;-70
2024/04/21 00:11:21;;;;;;;16.70;5.30;;;;;;;8.08;70.46;98802.95;67439;1284;1016221;-70
2024/04/21 00:14:23;;;;;;;16.20;5.20;;;;;;;8.04;71.18;98803.18;67439;1260;1016205;-70
2024/04/21 00:17:25;;;;;;;15.40;5.40;;;;;;;7.99;71.03;98799.42;67450;1284;1016909;-70
2024/04/21 00:20:28;;;;;;;16.70;5.50;;;;;;;7.93;71.34;98801.64;67399;1284;1016234;-71
2024/04/21 00:23:31;;;;;;;17.70;5.70;;;;;;;7.96;71.30;98800.60;67459;1284;1016416;-70
2024/04/21 00:26:34;;;;;;;17.90;5.30;;;;;;;7.98;70.84;98800.16;67425;1284;1016342;-70
2024/04/21 00:29:36;;;;;;;16.60;5.50;;;;;;;7.97;71.04;98804.06;67425;1284;1016490;-70
2024/04/21 00:32:38;;;;;;;18.60;6.00;;;;;;;7.88;71.36;98798.58;67413;1284;1016390;-70
2024/04/21 00:35:40;;;;;;;16.50;5.50;;;;;;;7.91;71.21;98804.90;67492;1284;1016592;-70
2024/04/21 00:38:42;;;;;;;15.30;4.90;;;;;;;7.92;71.48;98803.58;67478;1284;1017754;-70
2024/04/21 00:41:45;;;;;;;17.60;5.60;;;;;;;7.92;71.22;98803.23;67482;1283;1016340;-70
2024/04/21 00:44:47;;;;;;;18.50;5.80;;;;;;;7.96;71.15;98808.27;67488;1260;1016400;-70
2024/04/21 00:47:50;;;;;;;15.60;5.40;;;;;;;7.92;71.08;98812.29;67431;1268;1016233;-70
2024/04/21 00:50:52;;;;;;;15.40;5.10;;;;;;;7.87;70.86;98806.80;67471;1284;1016615;-70
2024/04/21 00:53:54;;;;;;;18.60;6.00;;;;;;;7.86;71.28;98806.50;67458;1284;1016298;-70
2024/04/21 00:56:57;;;;;;;18.10;6.10;;;;;;;7.80;71.56;98803.52;67476;1284;1016387;-70
2024/04/21 00:59:59;;;;;;;19.20;6.50;;;;;;;7.73;72.20;98802.99;67472;1284;1016051;-70
2024/04/21 01:03:01;;;;;;;18.70;6.40;;;;;;;7.75;72.35;98800.25;67454;1284;1016296;-70
2024/04/21 01:06:03;;;;;;;18.90;7.10;;;;;;;7.79;72.04;98802.69;67430;1284;1016448;-70
2024/04/21 01:09:06;;;;;;;21.10;7.00;;;;;;;7.80;71.75;98805.80;67461;1284;1016106;-70
2024/04/21 01:12:08;;;;;;;20.70;7.20;;;;;;;7.63;72.74;98805.75;67466;1284;1016296;-69
2024/04/21 01:15:11;;;;;;;20.20;7.50;;;;;;;7.68;72.91;98808.65;67451;1284;1016238;-70
2024/04/21 01:18:13;;;;;;;19.50;7.10;;;;;;;7.69;72.81;98803.71;67471;1284;1016387;-70
2024/04/21 01:21:15;;;;;;;21.80;7.80;;;;;;;7.70;72.97;98805.76;67483;1284;1016346;-70
2024/04/21 01:24:17;;;;;;;20.60;7.60;;;;;;;7.71;73.07;98807.98;67477;1284;1016524;-69
2024/04/21 01:27:19;;;;;;;21.40;8.30;;;;;;;7.68;73.36;98806.02;67474;1284;1016141;-70
2024/04/21 01:30:22;;;;;;;21.10;8.00;;;;;;;7.75;73.01;98813.19;67415;1284;1016454;-70
2024/04/21 01:33:24;;;;;;;21.40;8.10;;;;;;;7.75;73.32;98817.01;67454;1284;1016376;-70
2024/04/21 01:36:26;;;;;;;24.50;9.00;;;;;;;7.74;73.19;98818.61;67451;1284;1016320;-70
2024/04/21 01:39:28;;;;;;;22.60;8.90;;;;;;;7.79;73.32;98813.85;67444;1284;1017225;-70
2024/04/21 01:42:31;;;;;;;23.80;8.40;;;;;;;7.84;73.12;98817.05;67460;1284;1016208;-70
2024/04/21 01:45:33;;;;;;;24.50;9.80;;;;;;;7.82;72.83;98813.84;67467;1284;1016362;-70
2024/04/21 01:48:35;;;;;;;23.20;9.00;;;;;;;7.87;73.07;98817.44;67471;1284;1016519;-70
2024/04/21 01:51:37;;;;;;;24.60;10.30;;;;;;;7.88;72.73;98818.77;67479;1284;1016521;-70
2024/04/21 01:54:39;;;;;;;25.10;9.10;;;;;;;7.86;72.68;98817.82;67450;1284;1016538;-70
2024/04/21 01:57:42;;;;;;;23.40;9.20;;;;;;;7.85;72.74;98817.16;67449;1284;1016448;-70
2024/04/21 02:00:44;;;;;;;24.40;9.30;;;;;;;7.75;73.30;98826.90;67421;1284;1016175;-70
2024/04/21 02:03:46;;;;;;;21.10;8.80;;;;;;;7.70;73.49;98824.37;67424;1284;1019471;-70
2024/04/21 02:06:48;;;;;;;23.40;8.90;;;;;;;7.72;73.40;98822.19;67438;1284;1016175;-69
2024/04/21 02:09:50;;;;;;;22.70;8.50;;;;;;;7.66;73.50;98826.48;67437;1284;1016571;-70
2024/04/21 02:12:52;;;;;;;21.90;8.70;;;;;;;7.65;73.46;98817.11;67466;1284;1016476;-70
2024/04/21 02:15:55;;;;;;;22.20;8.90;;;;;;;7.73;73.13;98821.10;67454;1284;1017110;-70
2024/04/21 02:18:57;;;;;;;25.00;9.00;;;;;;;7.74;73.03;98815.30;67476;1284;1016925;-70
2024/04/21 02:21:59;;;;;;;24.20;8.20;;;;;;;7.75;72.69;98813.86;67468;1284;1016416;-70
2024/04/21 02:25:01;;;;;;;22.50;9.00;;;;;;;7.69;72.67;98818.50;67474;1284;1019767;-70
2024/04/21 02:28:04;;;;;;;23.20;8.90;;;;;;;7.70;72.82;98814.27;67430;1284;1015750;-70
2024/04/21 02:31:06;;;;;;;21.90;8.50;;;;;;;7.70;72.39;98819.14;67431;1284;1016267;-70
2024/04/21 02:34:09;;;;;;;21.70;8.30;;;;;;;7.66;72.45;98817.09;67469;1284;1016631;-70
2024/04/21 02:37:11;;;;;;;23.30;8.70;;;;;;;7.57;73.03;98819.78;67462;1284;1016150;-70
2024/04/21 02:40:14;;;;;;;22.60;9.00;;;;;;;7.56;73.06;98817.38;67445;1260;1016500;-70
2024/04/21 02:43:16;;;;;;;22.60;8.30;;;;;;;7.49;73.56;98820.32;67441;1284;1016469;-70
2024/04/21 02:46:18;;;;;;;24.00;8.80;;;;;;;7.43;73.44;98816.59;67468;1284;1018753;-70
2024/04/21 02:49:21;;;;;;;22.20;9.00;;;;;;;7.49;73.47;98817.17;67459;1284;1016254;-70
2024/04/21 02:52:23;;;;;;;24.80;8.90;;;;;;;7.49;73.18;98818.75;67457;1284;1016321;-70
2024/04/21 02:55:25;;;;;;;22.30;9.10;;;;;;;7.47;73.03;98817.64;67465;1284;1016334;-70
2024/04/21 02:58:28;;;;;;;22.50;8.70;;;;;;;7.51;72.98;98823.06;67418;1284;1016450;-70
2024/04/21 03:01:30;;;;;;;24.50;8.40;;;;;;;7.53;72.48;98826.06;67435;1284;1016285;-70
2024/04/21 03:04:32;;;;;;;21.40;8.60;;;;;;;7.53;72.27;98830.79;67440;1284;1016416;-70
2024/04/21 03:07:34;;;;;;;21.60;8.30;;;;;;;7.51;72.29;98828.58;67419;1284;1016198;-70
2024/04/21 03:10:37;;;;;;;23.50;8.30;;;;;;;7.51;71.97;98825.13;67437;1284;1016856;-70
2024/04/21 03:13:39;;;;;;;23.00;8.50;;;;;;;7.43;72.13;98830.00;67449;1284;1016502;-70
2024/04/21 03:16:41;;;;;;;24.70;8.90;;;;;;;7.50;71.69;98832.65;67467;1284;1016976;-70
2024/04/21 03:19:43;;;;;;;23.30;8.40;;;;;;;7.67;70.67;98825.39;67449;1284;1018832;-70
2024/04/21 03:22:45;;;;;;;24.20;9.50;;;;;;;7.59;70.87;98831.34;67467;1284;1019809;-70
2024/04/21 03:25:48;;;;;;;23.90;9.40;;;;;;;7.49;71.42;98831.67;67483;1284;1016480;-70
2024/04/21 03:28:50;;;;;;;;;;;;;;;7.47;71.06;98833.83;67472;1284;1016110;-70
2024/04/21 03:31:52;;;;;;;23.30;8.60;;;;;;;7.41;71.32;98831.17;67435;1284;1016425;-70
2024/04/21 03:34:55;;;;;;;24.80;8.50;;;;;;;7.41;71.39;98833.96;67428;1284;1015917;-70
2024/04/21 03:37:57;;;;;;;23.90;8.20;;;;;;;7.42;71.38;98833.20;67443;1284;1016442;-70
2024/04/21 03:41:00;;;;;;;23.00;8.50;;;;;;;7.39;71.44;98833.67;67441;1284;1016468;-70
2024/04/21 03:44:03;;;;;;;22.60;8.60;;;;;;;7.43;71.42;98833.69;67411;1284;1016503;-70
2024/04/21 03:47:05;;;;;;;23.80;8.70;;;;;;;7.47;71.12;98836.61;67449;1284;1015729;-70
2024/04/21 03:50:07;;;;;;;23.10;9.20;;;;;;;7.42;70.75;98835.80;67462;1284;1016186;-70
2024/04/21 03:53:10;;;;;;;23.70;8.60;;;;;;;7.36;70.88;98835.90;67467;1284;1016429;-70
2024/04/21 03:56:12;;;;;;;23.40;8.80;;;;;;;7.36;70.83;98837.98;67454;1284;1016174;-70
2024/04/21 03:59:14;;;;;;;21.50;8.50;;;;;;;7.37;71.00;98841.80;67432;1284;1016310;-70
2024/04/21 04:02:16;;;;;;;21.60;8.50;;;;;;;7.40;70.76;98844.27;67472;1284;1015745;-70
2024/04/21 04:05:18;;;;;;;27.00;8.50;;;;;;;7.29;70.57;98845.29;67470;1284;1016486;-70
2024/04/21 04:08:21;;;;;;;23.80;8.50;;;;;;;7.23;70.32;98853.92;67450;1284;1016372;-70
2024/04/21 04:11:23;;;;;;;21.00;8.70;;;;;;;7.16;70.77;98852.33;67437;1284;1016828;-70
2024/04/21 04:14:25;;;;;;;22.70;8.60;;;;;;;7.18;70.91;98850.52;67436;1284;1016348;-70
2024/04/21 04:17:27;;;;;;;23.60;9.40;;;;;;;7.16;70.87;98853.04;67434;1284;1016442;-70
2024/04/21 04:20:29;;;;;;;23.50;9.20;;;;;;;7.18;70.30;98857.28;67449;1284;1016455;-70
2024/04/21 04:23:32;;;;;;;25.10;8.90;;;;;;;7.21;70.14;98860.96;67458;1284;1016761;-70
2024/04/21 04:26:34;;;;;;;23.80;8.60;;;;;;;7.18;69.99;98866.70;67460;1284;1019507;-71
2024/04/21 04:29:36;;;;;;;23.20;9.50;;;;;;;7.15;69.96;98864.05;67462;1284;1016412;-70
2024/04/21 04:32:38;;;;;;;22.70;8.80;;;;;;;7.17;70.02;98865.14;67440;1284;1016339;-70
2024/04/21 04:35:41;;;;;;;23.50;8.70;;;;;;;7.18;69.87;98859.73;67482;1284;1016474;-71
2024/04/21 04:38:43;;;;;;;22.20;8.30;;;;;;;7.22;69.80;98863.02;67456;1282;1016501;-70
2024/04/21 04:41:45;;;;;;;23.30;8.10;;;;;;;7.13;69.87;98864.30;67421;1284;1016483;-71
2024/04/21 04:44:47;;;;;;;20.30;7.90;;;;;;;7.12;70.02;98867.11;67433;1284;1015956;-70
2024/04/21 04:47:49;;;;;;;24.40;8.90;;;;;;;7.15;69.92;98866.66;67444;1284;1016643;-70
2024/04/21 04:50:52;;;;;;;22.50;8.80;;;;;;;7.20;70.18;98867.45;67447;1284;1016512;-71
2024/04/21 04:53:54;;;;;;;21.80;8.20;;;;;;;7.21;70.24;98865.15;67473;1284;1016340;-70
2024/04/21 04:56:56;;;;;;;23.80;8.60;;;;;;;7.23;70.06;98864.89;67474;1284;1016444;-71
2024/04/21 04:59:59;;;;;;;22.40;8.40;;;;;;;7.26;70.04;98868.23;67466;1284;1018544;-71
2024/04/21 05:03:01;;;;;;;;;;;;;;;7.26;69.84;98868.94;67460;1284;1016551;-71
2024/04/21 05:06:03;;;;;;;25.20;8.50;;;;;;;7.20;69.66;98875.98;67404;1284;1016406;-70
2024/04/21 05:09:06;;;;;;;22.40;8.00;;;;;;;7.18;69.82;98879.21;67426;1284;1016241;-70
2024/04/21 05:12:08;;;;;;;22.10;8.00;;;;;;;7.15;69.71;98883.70;67422;1284;1018998;-70
2024/04/21 05:15:10;;;;;;;21.00;8.00;;;;;;;7.16;69.87;98883.32;67446;1284;1016366;-70
2024/04/21 05:18:12;;;;;;;22.20;8.00;;;;;;;7.15;70.06;98888.73;67466;1284;1016427;-71
2024/04/21 05:21:14;;;;;;;21.00;7.20;;;;;;;7.12;70.26;98891.48;67468;1284;1016503;-71
2024/04/21 05:24:17;;;;;;;23.60;7.80;;;;;;;7.17;69.90;98893.33;67485;1284;1016160;-70
2024/04/21 05:27:19;;;;;;;22.30;7.80;;;;;;;7.21;70.20;98888.80;67460;1284;1017066;-70
2024/04/21 05:30:21;;;;;;;20.20;7.40;;;;;;;7.29;70.02;98893.80;67435;1284;1016073;-70
2024/04/21 05:33:24;;;;;;;20.90;6.50;;;;;;;7.37;69.65;98888.75;67433;1284;1016331;-70
2024/04/21 05:36:27;;;;;;;;;;;;;;;7.39;69.70;98894.23;67495;1284;1016317;-70
2024/04/21 05:39:29;;;;;;;20.70;6.90;;;;;;;7.39;69.07;98894.96;67473;1284;1016921;-70
2024/04/21 05:42:31;;;;;;;21.40;7.20;;;;;;;7.39;69.11;98898.07;67450;1284;1018177;-70
2024/04/21 05:45:33;;;;;;;20.00;6.60;;;;;;;7.50;69.23;98898.25;67444;1284;1016445;-70
2024/04/21 05:48:36;;;;;;;18.40;6.40;;;;;;;7.51;68.75;98898.89;67445;1284;1016898;-71
2024/04/21 05:51:38;;;;;;;21.90;6.10;;;;;;;7.53;68.30;98897.77;67459;1284;1016902;-71
2024/04/21 05:54:41;;;;;;;;;;;;;;;7.52;68.03;98893.79;67506;1284;1017147;-71
2024/04/21 05:57:43;;;;;;;19.70;6.70;;;;;;;7.43;68.12;98895.27;67473;1284;1016604;-70
2024/04/21 06:00:46;;;;;;;;;;;;;;;7.50;67.29;98898.06;67456;1284;1016196;-71
2024/04/21 06:03:48;;;;;;;22.50;7.30;;;;;;;7.27;67.93;98902.08;67454;1284;1016474;-71
2024/04/21 06:06:51;;;;;;;20.20;7.00;;;;;;;7.23;68.36;98904.35;67452;1284;1016419;-71
2024/04/21 06:09:55;;;;;;;19.60;6.50;;;;;;;7.20;68.17;98903.44;67455;1284;1016487;-71
2024/04/21 06:12:57;;;;;;;18.80;6.00;;;;;;;7.15;68.65;98902.11;64927;1284;5370439;-71
2024/04/21 06:16:08;;;;;;;19.30;6.40;;;;;;;7.20;68.74;98908.14;67461;1284;1018528;-71
2024/04/21 06:19:11;;;;;;;19.80;6.10;;;;;;;7.15;68.58;98908.74;67455;1284;1016035;-71
2024/04/21 06:22:14;;;;;;;16.20;5.40;;;;;;;7.11;68.33;98910.65;67491;1283;1016513;-70
2024/04/21 06:25:16;;;;;;;16.90;5.40;;;;;;;7.01;68.30;98913.36;67449;1284;1016438;-71
2024/04/21 06:28:19;;;;;;;19.30;6.00;;;;;;;6.91;68.62;98913.80;67447;1284;1018181;-71
2024/04/21 06:31:21;;;;;;;17.40;5.70;;;;;;;6.96;68.77;98915.15;67469;1284;1016548;-71
2024/04/21 06:34:23;;;;;;;18.30;5.60;;;;;;;7.04;68.45;98914.42;67463;1284;1016466;-71
2024/04/21 06:37:25;;;;;;;19.50;6.40;;;;;;;7.11;68.19;98914.83;67479;1284;1016423;-71
2024/04/21 06:40:28;;;;;;;17.30;5.60;;;;;;;7.26;67.75;98917.09;67444;1284;1018034;-71
2024/04/21 06:43:30;;;;;;;17.30;5.30;;;;;;;7.37;67.60;98916.08;67429;1284;1016489;-71
2024/04/21 06:46:32;;;;;;;16.60;5.30;;;;;;;7.48;67.11;98916.25;67446;1284;1016508;-71
2024/04/21 06:49:36;;;;;;;14.10;4.40;;;;;;;7.54;66.58;98916.69;67460;1284;1016315;-71
2024/04/21 06:52:39;;;;;;;18.80;5.50;;;;;;;7.55;66.52;98919.73;67471;1284;1016314;-72
2024/04/21 06:55:41;;;;;;;20.20;5.70;;;;;;;7.62;66.25;98918.70;67463;1284;1016477;-71
2024/04/21 06:58:44;;;;;;;17.40;5.30;;;;;;;7.72;66.15;98919.85;67475;1284;1015914;-71
2024/04/21 07:01:46;;;;;;;16.50;5.30;;;;;;;7.88;65.91;98921.14;67473;1284;1016278;-71
2024/04/21 07:04:49;;;;;;;16.00;5.20;;;;;;;8.03;65.49;98919.89;67472;1284;1016455;-71
2024/04/21 07:07:51;;;;;;;17.70;5.40;;;;;;;8.11;65.07;98915.87;67481;1284;1016433;-71
2024/04/21 07:10:53;;;;;;;16.90;5.20;;;;;;;8.16;64.94;98918.77;67472;1284;1018636;-71
2024/04/21 07:13:55;;;;;;;16.50;5.60;;;;;;;8.25;64.54;98916.92;67462;1284;1016292;-71
2024/04/21 07:16:57;;;;;;;17.90;5.60;;;;;;;8.31;64.50;98912.94;67486;1284;1018659;-70
2024/04/21 07:20:00;;;;;;;16.50;5.40;;;;;;;8.47;63.85;98916.20;67462;1284;1016868;-71
2024/04/21 07:23:02;;;;;;;17.20;5.40;;;;;;;8.60;63.46;98911.52;67437;1284;1016451;-71
2024/04/21 07:26:04;;;;;;;18.10;5.40;;;;;;;8.63;63.48;98911.88;67445;1284;1016128;-71
2024/04/21 07:29:07;;;;;;;18.40;5.60;;;;;;;8.83;63.55;98911.54;67439;1284;1016470;-71
2024/04/21 07:32:09;;;;;;;18.00;4.90;;;;;;;9.17;62.76;98912.34;67427;1284;1016524;-71
2024/04/21 07:35:11;;;;;;;18.70;5.50;;;;;;;9.26;61.73;98911.18;67456;1284;1016418;-71
2024/04/21 07:38:13;;;;;;;15.90;5.10;;;;;;;9.33;61.58;98911.36;67478;1284;1016260;-71
2024/04/21 07:41:16;;;;;;;16.40;5.00;;;;;;;9.47;61.51;98911.67;67469;1284;1019274;-72
2024/04/21 07:44:18;;;;;;;16.00;5.50;;;;;;;9.59;60.64;98907.98;67463;1284;1016401;-69
2024/04/21 07:47:21;;;;;;;;;;;;;;;9.61;60.32;98908.73;67449;1284;1016721;-71
2024/04/21 07:50:23;;;;;;;17.90;5.00;;;;;;;9.62;59.80;98909.74;67437;1284;1016462;-73
2024/04/21 07:53:25;;;;;;;15.80;5.80;;;;;;;9.58;59.72;98914.48;67444;1284;1016221;-70
2024/04/21 07:56:27;;;;;;;17.90;5.50;;;;;;;9.63;60.04;98916.38;67480;1284;1016397;-70
2024/04/21 07:59:30;;;;;;;17.20;5.70;;;;;;;9.90;58.57;98918.84;67484;1284;1016331;-70
2024/04/21 08:02:32;;;;;;;18.10;5.70;;;;;;;9.99;59.25;98919.56;67450;1284;1016521;-70
2024/04/21 08:05:34;;;;;;;16.00;5.60;;;;;;;10.02;58.79;98919.59;67460;1284;1016697;-70
2024/04/21 08:08:37;;;;;;;18.50;6.20;;;;;;;9.91;59.12;98916.70;67423;1284;1016635;-70
2024/04/21 08:11:39;;;;;;;16.30;5.70;;;;;;;10.00;59.05;98915.84;67450;1284;1016336;-71
2024/04/21 08:14:41;;;;;;;15.10;5.20;;;;;;;10.06;59.13;98917.78;67444;1284;1019817;-70
2024/04/21 08:17:43;;;;;;;14.30;4.70;;;;;;;10.15;59.15;98916.19;67442;1284;1016074;-71
2024/04/21 08:20:46;;;;;;;16.10;5.30;;;;;;;10.39;58.76;98917.84;67473;1284;1018136;-69
2024/04/21 08:23:48;;;;;;;15.40;5.20;;;;;;;10.66;57.68;98919.92;67429;1284;1016335;-69
2024/04/21 08:26:54;;;;;;;14.40;4.90;;;;;;;10.79;58.17;98924.00;67440;1284;1016783;-69
2024/04/21 08:29:56;;;;;;;15.60;4.90;;;;;;;11.16;57.65;98922.70;67466;1284;1016841;-69
2024/04/21 08:32:58;;;;;;;15.20;5.10;;;;;;;11.21;56.64;98925.13;67473;1284;1016093;-69
2024/04/21 08:36:01;;;;;;;15.10;5.10;;;;;;;11.23;56.77;98926.80;67449;1284;1016352;-70
2024/04/21 08:39:04;;;;;;;16.00;5.40;;;;;;;11.09;55.85;98929.38;67436;1284;1016236;-69
2024/04/21 08:42:06;;;;;;;17.20;5.50;;;;;;;10.89;56.24;98931.48;67480;1284;1016521;-69
2024/04/21 08:45:09;;;;;;;17.50;5.50;;;;;;;10.81;56.85;98930.03;67491;1284;1016502;-70
2024/04/21 08:48:11;;;;;;;18.60;6.00;;;;;;;10.87;56.66;98933.00;67463;1284;1016398;-71
2024/04/21 08:51:13;;;;;;;18.60;5.90;;;;;;;10.73;56.46;98930.14;67434;1284;1016445;-70
2024/04/21 08:54:15;;;;;;;16.50;5.80;;;;;;;10.64;56.41;98930.18;67444;1284;1016277;-70
2024/04/21 08:57:17;;;;;;;19.20;6.90;;;;;;;10.48;57.04;98929.68;67406;1284;1016367;-70
2024/04/21 09:00:21;;;;;;;20.70;6.60;;;;;;;10.46;57.60;98929.13;67435;1284;1017898;-70
2024/04/21 09:03:26;;;;;;;20.10;6.90;;;;;;;10.32;57.39;98924.50;67442;1284;1016430;-70
2024/04/21 09:06:28;;;;;;;;;;;;;;;10.08;58.00;98929.56;67453;1284;1016949;-70
2024/04/21 09:09:31;;;;;;;19.60;6.80;;;;;;;9.85;58.44;98930.17;67457;1284;1016410;-70
2024/04/21 09:12:33;;;;;;;19.20;6.70;;;;;;;9.57;59.32;98930.83;67445;1284;1016116;-70
2024/04/21 09:15:36;;;;;;;19.90;7.30;;;;;;;9.37;59.97;98930.48;67434;1284;1016504;-70
2024/04/21 09:18:38;;;;;;;18.50;6.40;;;;;;;9.22;60.39;98933.03;67464;1284;1020036;-70
2024/04/21 09:21:40;;;;;;;20.00;7.00;;;;;;;9.07;61.04;98930.20;67472;1284;1016520;-70
2024/04/21 09:24:43;;;;;;;19.70;7.10;;;;;;;9.13;61.48;98929.88;67450;1284;1016360;-70
2024/04/21 09:27:46;;;;;;;18.20;6.60;;;;;;;9.00;61.68;98934.02;67418;1284;1018577;-70
2024/04/21 09:30:48;;;;;;;18.30;6.60;;;;;;;8.73;62.52;98927.91;67446;1284;1016592;-70
2024/04/21 09:33:51;;;;;;;21.90;6.80;;;;;;;8.67;63.12;98923.92;67460;1284;1016347;-70
2024/04/21 09:36:55;;;;;;;20.60;6.90;;;;;;;8.56;63.54;98928.45;67461;1284;1016303;-69
2024/04/21 09:39:58;;;;;;;21.80;7.30;;;;;;;8.55;63.70;98926.26;67426;1284;1016313;-69
2024/04/21 09:43:00;;;;;;;19.80;6.70;;;;;;;8.61;63.20;98925.55;67442;1284;1016259;-69
2024/04/21 09:46:02;;;;;;;19.70;7.40;;;;;;;8.59;63.86;98923.77;67469;1284;1016674;-69
2024/04/21 09:49:04;;;;;;;19.50;6.80;;;;;;;8.44;64.64;98920.55;67473;1284;1016949;-69
2024/04/21 09:52:08;;;;;;;19.40;7.00;;;;;;;8.45;64.65;98919.60;67461;1284;1016551;-70
2024/04/21 09:55:11;;;;;;;18.50;6.70;;;;;;;8.44;65.19;98918.45;67442;1284;1016396;-69
2024/04/21 09:58:13;;;;;;;20.00;7.00;;;;;;;8.42;65.70;98916.74;67454;1284;1016382;-69
2024/04/21 10:01:15;;;;;;;21.30;7.20;;;;;;;8.47;66.00;98916.85;67463;1284;1016576;-69
2024/04/21 10:04:17;;;;;;;22.80;7.60;;;;;;;8.48;65.70;98916.82;67478;1284;1018127;-69
2024/04/21 10:07:19;;;;;;;21.60;7.90;;;;;;;8.56;66.22;98917.67;67417;1284;1016471;-69
2024/04/21 10:10:23;;;;;;;19.90;7.40;;;;;;;8.65;66.50;98918.73;67425;1284;1016350;-69
2024/04/21 10:13:26;;;;;;;22.20;8.80;;;;;;;8.71;65.86;98915.99;67455;1284;1016517;-70
2024/04/21 10:16:28;;;;;;;19.60;7.50;;;;;;;8.74;66.17;98917.62;67421;1284;1016473;-69
2024/04/21 10:19:31;;;;;;;21.90;7.80;;;;;;;8.90;65.88;98916.44;67454;1284;1016212;-70
2024/04/21 10:22:33;;;;;;;19.90;7.50;;;;;;;9.06;66.03;98917.17;67458;1284;1016350;-70
2024/04/21 10:25:35;;;;;;;21.60;8.20;;;;;;;9.15;65.38;98916.30;67492;1284;1018675;-69
2024/04/21 10:28:37;;;;;;;23.20;7.50;;;;;;;9.16;65.68;98913.45;67468;1284;1016172;-70
2024/04/21 10:31:40;;;;;;;22.00;7.70;;;;;;;9.31;65.66;98913.89;67461;1284;1016585;-70
2024/04/21 10:34:42;;;;;;;20.60;7.40;;;;;;;9.58;65.48;98914.86;67419;1284;1019580;-70
2024/04/21 10:37:45;;;;;;;19.70;6.70;;;;;;;9.71;64.83;98915.17;67439;1284;1016569;-70
2024/04/21 10:40:47;;;;;;;22.20;7.20;;;;;;;9.68;64.39;98918.15;67460;1284;1016374;-70
2024/04/21 10:43:50;;;;;;;20.20;7.20;;;;;;;9.61;64.21;98920.65;67463;1284;1016760;-69
2024/04/21 10:46:52;;;;;;;20.50;6.90;;;;;;;9.68;64.53;98921.66;67450;1284;1016189;-70
2024/04/21 10:49:54;;;;;;;18.90;6.90;;;;;;;9.66;64.69;98924.02;67443;1284;1016217;-70
2024/04/21 10:52:56;;;;;;;18.90;6.40;;;;;;;9.74;64.06;98926.73;67435;1284;1016312;-70
2024/04/21 10:55:59;;;;;;;18.50;6.30;;;;;;;9.78;64.38;98925.63;67425;1284;1016387;-70
2024/04/21 10:59:03;;;;;;;20.80;6.60;;;;;;;9.81;64.28;98926.72;67440;1284;1016448;-70
2024/04/21 11:02:05;;;;;;;23.30;7.10;;;;;;;9.88;64.47;98929.25;67415;1284;1016173;-70
2024/04/21 11:05:07;;;;;;;22.10;7.30;;;;;;;9.96;64.06;98930.91;67450;1284;1015873;-70
2024/04/21 11:08:09;;;;;;;19.90;7.30;;;;;;;10.02;64.16;98935.65;67466;1284;1016281;-70
2024/04/21 11:11:12;;;;;;;20.60;7.00;;;;;;;10.13;64.03;98932.96;67466;1284;1016432;-70
2024/04/21 11:14:14;;;;;;;20.10;6.80;;;;;;;10.16;63.60;98937.09;67454;1284;1018544;-70
2024/04/21 11:17:16;;;;;;;18.90;6.80;;;;;;;10.16;63.70;98934.99;67441;1284;1016422;-70
2024/04/21 11:20:19;;;;;;;;;;;;;;;10.23;63.90;98937.78;67444;1284;1016458;-70
2024/04/21 11:23:21;;;;;;;22.20;7.50;;;;;;;10.19;63.46;98937.95;67444;1284;1016326;-69
2024/04/21 11:26:23;;;;;;;22.10;6.60;;;;;;;10.16;63.51;98941.50;67475;1284;1016248;-70
2024/04/21 11:29:25;;;;;;;22.50;7.40;;;;;;;10.07;63.50;98941.61;67448;1284;1016416;-70
2024/04/21 11:32:28;;;;;;;23.10;7.90;;;;;;;10.08;63.81;98945.43;67441;1284;1016454;-69
2024/04/21 11:35:30;;;;;;;22.30;7.70;;;;;;;10.11;63.93;98943.19;67467;1284;1018142;-69
2024/04/21 11:38:32;;;;;;;21.40;7.90;;;;;;;10.10;63.86;98943.20;67458;1284;1016939;-69
2024/04/21 11:41:34;;;;;;;20.70;7.10;;;;;;;10.17;63.93;98940.91;67437;1284;1017773;-69
2024/04/21 11:44:37;;;;;;;18.70;6.40;;;;;;;10.31;63.89;98939.59;67444;1284;1016485;-69
2024/04/21 11:47:39;;;;;;;18.30;6.10;;;;;;;10.29;63.71;98941.64;67429;1260;1015945;-69
2024/04/21 11:50:41;;;;;;;19.70;6.30;;;;;;;10.27;63.48;98942.98;67428;1284;1016498;-69
2024/04/21 11:53:43;;;;;;;21.50;6.50;;;;;;;10.21;63.48;98946.63;67453;1284;1016849;-69
2024/04/21 11:56:46;;;;;;;19.00;6.50;;;;;;;10.23;63.85;98946.15;67470;1284;1016750;-69
2024/04/21 11:59:48;;;;;;;20.10;6.40;;;;;;;10.46;62.71;98944.67;67465;1284;1016511;-69
2024/04/21 12:02:50;;;;;;;21.60;6.80;;;;;;;10.49;62.60;98947.30;67459;1284;1016445;-69
2024/04/21 12:05:52;;;;;;;22.00;7.20;;;;;;;10.59;62.43;98944.81;67469;1284;1016529;-69
2024/04/21 12:08:54;;;;;;;22.30;7.80;;;;;;;10.72;62.26;98943.87;67468;1284;1016512;-69
2024/04/21 12:11:57;;;;;;;20.70;7.10;;;;;;;10.79;61.91;98943.08;67436;1284;1016509;-69
2024/04/21 12:15:00;;;;;;;19.80;6.50;;;;;;;10.86;61.78;98946.50;67434;1284;1016225;-69
2024/04/21 12:18:02;;;;;;;22.10;6.60;;;;;;;10.93;61.55;98947.68;67445;1284;1016533;-69
2024/04/21 12:21:06;;;;;;;19.70;6.60;;;;;;;10.98;61.34;98947.05;67453;1284;1016422;-69
2024/04/21 12:24:08;;;;;;;21.30;6.70;;;;;;;10.91;61.43;98944.81;67469;1284;1016494;-69
2024/04/21 12:27:11;;;;;;;20.10;6.70;;;;;;;11.06;61.72;98942.89;67465;1284;1016432;-69
2024/04/21 12:30:14;;;;;;;22.80;7.30;;;;;;;11.02;62.23;98942.77;67459;1284;1016513;-69
2024/04/21 12:33:17;;;;;;;23.40;6.40;;;;;;;10.84;62.47;98942.79;67452;1284;1016496;-69
2024/04/21 12:36:19;;;;;;;21.40;7.00;;;;;;;10.67;63.07;98943.42;67413;1284;1016505;-69
2024/04/21 12:39:21;;;;;;;18.30;6.30;;;;;;;10.69;62.81;98943.36;67434;1284;1015583;-69
2024/04/21 12:42:23;;;;;;;21.90;7.00;;;;;;;10.65;62.58;98945.17;67402;1284;1016570;-69
2024/04/21 12:45:26;;;;;;;18.30;6.20;;;;;;;10.68;63.03;98945.47;67438;1284;1016246;-69
2024/04/21 12:48:28;;;;;;;22.70;6.70;;;;;;;10.73;62.88;98948.34;67425;1284;1016626;-69
2024/04/21 12:51:30;;;;;;;20.20;6.20;;;;;;;10.55;62.77;98949.76;67448;1284;1016098;-69
2024/04/21 12:54:32;;;;;;;20.70;6.70;;;;;;;10.50;63.63;98945.13;67449;1284;1016055;-69
2024/04/21 12:57:35;;;;;;;20.80;6.50;;;;;;;10.55;62.84;98943.94;67475;1284;1018266;-69
2024/04/21 13:00:37;;;;;;;20.90;6.00;;;;;;;10.62;63.22;98940.05;67439;1284;1015869;-69
2024/04/21 13:03:39;;;;;;;20.60;7.00;;;;;;;10.69;63.11;98938.93;67489;1284;1015929;-69
2024/04/21 13:06:41;;;;;;;20.10;6.60;;;;;;;10.76;62.64;98938.88;67444;1284;1016512;-69
2024/04/21 13:09:46;;;;;;;19.00;6.60;;;;;;;10.73;62.56;98936.25;67428;1284;1016176;-68
2024/04/21 13:12:48;;;;;;;20.20;7.10;;;;;;;10.78;62.64;98935.77;67485;1284;1016307;-69
2024/04/21 13:15:51;;;;;;;19.80;7.10;;;;;;;10.82;62.33;98934.90;67446;1284;1016497;-69
2024/04/21 13:18:53;;;;;;;22.30;7.10;;;;;;;10.78;62.20;98934.61;67438;1284;1016402;-69
2024/04/21 13:21:55;;;;;;;24.90;8.70;;;;;;;10.76;62.43;98934.89;67444;1284;1016420;-69
2024/04/21 13:24:57;;;;;;;21.90;7.70;;;;;;;10.79;62.87;98935.02;67442;1284;1016424;-68
2024/04/21 13:28:00;;;;;;;19.50;7.10;;;;;;;10.91;62.69;98934.87;67420;1284;1016650;-69
2024/04/21 13:31:02;;;;;;;21.80;7.10;;;;;;;10.99;62.71;98930.16;67437;1284;1017395;-68
2024/04/21 13:34:04;;;;;;;20.10;6.70;;;;;;;11.04;62.60;98932.45;67415;1284;1018698;-69
2024/04/21 13:37:06;;;;;;;22.30;6.90;;;;;;;11.11;62.19;98929.63;67468;1284;1016450;-69
2024/04/21 13:40:08;;;;;;;19.80;6.50;;;;;;;11.07;62.00;98930.02;67476;1284;1016499;-69
2024/04/21 13:43:11;;;;;;;20.50;6.80;;;;;;;11.04;62.75;98930.05;67475;1284;1016383;-68
2024/04/21 13:46:13;;;;;;;20.40;6.80;;;;;;;11.22;62.79;98929.80;67458;1284;1019072;-68
2024/04/21 13:49:15;;;;;;;20.00;6.80;;;;;;;11.34;62.81;98930.14;67472;1284;1016511;-68
2024/04/21 13:52:17;;;;;;;19.60;6.70;;;;;;;11.36;61.88;98934.52;67442;1284;1015976;-68
2024/04/21 13:55:20;;;;;;;21.60;7.40;;;;;;;11.33;62.40;98934.75;67425;1284;1016475;-69
2024/04/21 13:58:22;;;;;;;21.10;6.70;;;;;;;11.28;62.56;98935.93;67440;1284;1016499;-68